Time;durP1;ratioP1;P1;durP2;ratioP2;P2;SDS_P1;SDS_P2;PMS_P1;PMS_P2;Temp;Humidity;BMP_temperature;BMP_pressure;BME280_temperature;BME280_humidity;BME280_pressure;Samples;Min_cycle;Max_cycle;Signal;HPM_P1;HPM_P2
2021/10/09 00:01:48;;;;;;;14.25;9.07;;;7.90;99.90;;;6.12;98.65;102537.94;2567843;30;138296;-39
2021/10/09 00:04:15;;;;;;;15.52;9.00;;;7.90;99.90;;;6.07;98.91;102524.81;2569320;30;137540;-39
2021/10/09 00:06:43;;;;;;;13.02;7.75;;;7.80;99.90;;;6.07;99.33;102526.66;2568752;30;138500;-39
2021/10/09 00:09:11;;;;;;;13.70;8.07;;;7.80;99.90;;;6.08;99.95;102521.09;2567811;30;137544;-39
2021/10/09 00:11:38;;;;;;;10.77;7.53;;;7.80;99.90;;;6.06;100.00;102527.66;2568237;30;139261;-39
2021/10/09 00:14:13;;;;;;;15.23;8.30;;;7.80;99.90;;;5.99;99.89;102520.06;2569931;30;137490;-39
2021/10/09 00:16:43;;;;;;;13.18;8.05;;;7.70;99.90;;;5.93;99.79;102520.63;2568015;30;138238;-39
2021/10/09 00:19:12;;;;;;;12.60;7.53;;;7.70;99.90;;;5.94;100.00;102521.47;2567658;30;138092;-39
2021/10/09 00:21:44;;;;;;;12.43;8.30;;;7.70;99.90;;;5.88;99.63;102526.47;2568640;30;139029;-39
2021/10/09 00:24:15;;;;;;;13.20;8.45;;;7.60;99.90;;;5.87;99.74;102521.19;2569995;30;137002;-39
2021/10/09 00:26:45;;;;;;;11.32;7.32;;;7.60;99.90;;;5.86;100.00;102525.75;2568502;30;138390;-39
2021/10/09 00:29:13;;;;;;;12.43;7.07;;;7.60;99.90;;;5.83;100.00;102519.75;2567633;30;137488;-39
2021/10/09 00:31:42;;;;;;;12.55;7.85;;;7.50;99.90;;;5.78;100.00;102528.28;2568765;30;140653;-39
2021/10/09 00:34:09;;;;;;;;;;;7.50;99.90;;;5.78;100.00;102522.88;2569220;30;137493;-39
2021/10/09 00:36:37;;;;;;;11.25;7.63;;;7.50;99.90;;;5.76;100.00;102514.91;2571940;30;138616;-39
2021/10/09 00:39:07;;;;;;;12.05;7.25;;;7.50;99.90;;;5.72;100.00;102526.13;2568832;30;139014;-39
2021/10/09 00:41:35;;;;;;;10.40;6.75;;;7.50;99.90;;;5.65;100.00;102522.28;2570572;30;139121;-39
2021/10/09 00:44:16;;;;;;;12.70;7.30;;;7.40;99.90;;;5.61;100.00;102524.41;2568066;30;137705;-39
2021/10/09 00:46:48;;;;;;;12.65;7.43;;;7.40;99.90;;;5.57;100.00;102520.25;2569956;30;137398;-39
2021/10/09 00:49:16;;;;;;;12.38;7.40;;;7.40;99.90;;;5.58;100.00;102521.97;2567136;30;136998;-39
2021/10/09 00:51:48;;;;;;;13.15;7.60;;;7.30;99.90;;;5.57;100.00;102525.66;2568797;30;139004;-39
2021/10/09 00:54:19;;;;;;;14.23;7.72;;;7.30;99.90;;;5.53;100.00;102527.78;2570315;30;137014;-39
2021/10/09 00:56:48;;;;;;;11.65;6.80;;;7.30;99.90;;;5.47;100.00;102517.50;2566856;30;139084;-39
2021/10/09 00:59:17;;;;;;;10.30;6.55;;;7.20;99.90;;;5.44;100.00;102525.91;2569299;30;136832;-39
2021/10/09 01:01:47;;;;;;;12.90;7.50;;;7.20;99.90;;;5.39;99.89;102523.59;2568602;30;136810;-39
2021/10/09 01:04:18;;;;;;;10.63;6.75;;;7.20;99.90;;;5.37;99.93;102519.34;2569910;30;137558;-39
2021/10/09 01:06:46;;;;;;;10.52;6.90;;;7.10;99.90;;;5.29;99.75;102518.16;2568682;30;139132;-39
2021/10/09 01:09:13;;;;;;;10.40;7.05;;;7.10;99.90;;;5.27;99.44;102520.13;2568722;30;139157;-39
2021/10/09 01:11:41;;;;;;;11.70;7.30;;;7.00;99.90;;;5.25;100.00;102516.72;2568405;30;140476;-39
2021/10/09 01:14:10;;;;;;;12.02;7.25;;;7.00;99.90;;;5.27;100.00;102512.00;2566785;30;138983;-39
2021/10/09 01:16:37;;;;;;;11.85;6.88;;;7.00;99.90;;;5.24;100.00;102509.59;2566927;30;138736;-39
2021/10/09 01:19:08;;;;;;;11.68;6.90;;;7.00;99.90;;;5.21;100.00;102515.28;2567391;30;138458;-39
2021/10/09 01:21:48;;;;;;;9.43;6.45;;;7.00;99.90;;;5.20;99.97;102518.97;2570179;30;138406;-39
2021/10/09 01:24:19;;;;;;;12.02;6.78;;;7.00;99.90;;;5.15;99.65;102518.53;2569022;30;139627;-38
2021/10/09 01:26:48;;;;;;;12.65;7.10;;;6.90;99.90;;;5.08;99.81;102510.06;2567041;30;140255;-39
2021/10/09 01:29:20;;;;;;;11.73;7.20;;;6.80;99.90;;;4.92;99.66;102488.94;2567025;30;138283;-39
2021/10/09 01:31:51;;;;;;;12.18;6.93;;;6.80;99.90;;;5.04;99.58;102509.50;2568430;30;140433;-39
2021/10/09 01:34:24;;;;;;;11.43;7.47;;;6.80;99.90;;;5.01;99.32;102503.50;2569075;30;137471;-38
2021/10/09 01:36:58;;;;;;;14.05;8.68;;;6.80;99.90;;;4.98;99.92;102507.31;2568734;30;140104;-39
2021/10/09 01:39:30;;;;;;;12.80;7.97;;;6.80;99.90;;;4.98;100.00;102511.88;2570822;30;136881;-40
2021/10/09 01:41:57;;;;;;;12.80;7.97;;;6.70;99.90;;;4.94;99.86;102502.34;2569525;30;138151;-39
2021/10/09 01:44:29;;;;;;;14.75;7.97;;;6.70;99.90;;;4.94;100.00;102503.19;2569863;30;139556;-39
2021/10/09 01:46:57;;;;;;;14.65;8.20;;;6.70;99.90;;;4.85;100.00;102504.00;2567574;30;138431;-39
2021/10/09 01:49:29;;;;;;;13.60;8.02;;;6.60;99.90;;;4.82;99.75;102501.56;2567012;30;137618;-39
2021/10/09 01:52:02;;;;;;;14.23;8.82;;;6.60;99.90;;;4.77;100.00;102496.53;2567959;30;140322;-39
2021/10/09 01:54:29;;;;;;;13.05;7.60;;;6.60;99.90;;;4.80;100.00;102500.84;2567631;30;138856;-39
2021/10/09 01:56:58;;;;;;;12.77;7.60;;;6.60;99.90;;;4.75;100.00;102493.09;2592887;30;138286;-40
2021/10/09 01:59:25;;;;;;;11.82;8.02;;;6.60;99.90;;;4.72;100.00;102494.22;2568465;30;139352;-40
2021/10/09 02:02:02;;;;;;;14.35;7.75;;;6.50;99.90;;;4.71;100.00;102497.06;2568114;30;138139;-38
2021/10/09 02:04:32;;;;;;;12.05;7.18;;;6.50;99.90;;;4.69;100.00;102497.19;2568052;30;138731;-40
2021/10/09 02:07:00;;;;;;;11.07;6.43;;;6.50;99.90;;;4.68;100.00;102487.38;2568625;30;137570;-40
2021/10/09 02:09:28;;;;;;;11.77;6.55;;;6.50;99.90;;;4.68;100.00;102495.47;2568766;30;138418;-40
2021/10/09 02:11:59;;;;;;;11.88;6.82;;;6.50;99.90;;;4.65;100.00;102484.94;2566428;30;137437;-41
2021/10/09 02:14:44;;;;;;;12.13;7.10;;;6.40;99.90;;;4.63;100.00;102486.91;2568523;30;138923;-40
2021/10/09 02:25:44;;;;;;;14.40;8.82;;;6.40;99.90;;;4.56;100.00;102474.91;2566398;30;137722;-40
2021/10/09 02:28:16;;;;;;;13.20;8.32;;;6.30;99.90;;;4.55;100.00;102486.72;2567667;30;137329;-40
2021/10/09 02:30:44;;;;;;;16.10;8.82;;;6.30;99.90;;;4.52;100.00;102476.19;2567834;30;140205;-40
2021/10/09 02:33:13;;;;;;;17.27;9.52;;;6.30;99.90;;;4.55;100.00;102474.03;2567594;30;141399;-40
2021/10/09 02:35:41;;;;;;;18.67;9.27;;;6.30;99.90;;;4.56;100.00;102472.22;2568128;30;139698;-40
2021/10/09 02:38:10;;;;;;;15.00;8.27;;;6.30;99.90;;;4.54;100.00;102479.59;2566232;30;139710;-40
2021/10/09 02:40:40;;;;;;;14.23;8.65;;;6.30;99.90;;;4.52;100.00;102473.47;2566371;30;138712;-40
2021/10/09 02:43:09;;;;;;;13.50;8.38;;;6.30;99.90;;;4.50;100.00;102480.81;2568520;30;139364;-40
2021/10/09 02:45:37;;;;;;;14.27;8.45;;;6.30;99.90;;;4.48;100.00;102483.69;2567189;30;138689;-40
2021/10/09 02:48:07;;;;;;;;;;;6.20;99.90;;;4.47;100.00;102474.69;2568327;30;139299;-40
2021/10/09 02:50:41;;;;;;;13.32;8.48;;;6.20;99.90;;;4.47;100.00;102477.41;2567861;30;138208;-40
2021/10/09 02:53:09;;;;;;;14.15;9.23;;;6.30;99.90;;;4.46;100.00;102473.00;2566478;30;140621;-40
2021/10/09 02:55:37;;;;;;;14.60;8.98;;;6.20;99.90;;;4.44;100.00;102468.72;2567910;30;138026;-38
2021/10/09 02:58:07;;;;;;;19.08;10.93;;;6.20;99.90;;;4.44;100.00;102474.97;2568190;30;138089;-41
2021/10/09 03:00:35;;;;;;;15.68;9.30;;;6.20;99.90;;;4.45;100.00;102470.44;2567406;30;138100;-40
2021/10/09 03:03:03;;;;;;;16.25;9.10;;;6.20;99.90;;;4.44;100.00;102469.56;2564118;30;139988;-40
2021/10/09 03:05:31;;;;;;;17.00;9.38;;;6.20;99.90;;;4.44;100.00;102464.16;2568131;30;139220;-41
2021/10/09 03:07:58;;;;;;;17.17;9.30;;;6.30;99.90;;;4.47;100.00;102465.75;2565845;30;138341;-40
2021/10/09 03:10:27;;;;;;;;;;;6.20;99.90;;;4.49;100.00;102463.78;2566875;30;139928;-40
2021/10/09 03:12:54;;;;;;;15.07;8.85;;;6.20;99.90;;;4.47;100.00;102465.75;2569028;30;139232;-40
2021/10/09 03:15:23;;;;;;;14.13;8.07;;;6.20;99.90;;;4.43;100.00;102473.25;2564876;30;139602;-40
2021/10/09 03:17:54;;;;;;;12.80;7.95;;;6.20;99.90;;;4.40;100.00;102469.97;2565839;30;140740;-40
2021/10/09 03:20:21;;;;;;;13.80;8.50;;;6.20;99.90;;;4.37;100.00;102473.78;2568983;30;137117;-40
2021/10/09 03:22:49;;;;;;;13.10;8.27;;;6.20;99.90;;;4.35;100.00;102475.75;2567378;30;137550;-41
2021/10/09 03:25:18;;;;;;;16.77;8.80;;;6.20;99.90;;;4.32;100.00;102466.06;2567737;30;138529;-40
2021/10/09 03:27:47;;;;;;;13.45;8.35;;;6.10;99.90;;;4.29;100.00;102470.88;2566498;30;140086;-40
2021/10/09 03:30:15;;;;;;;14.25;8.15;;;6.10;99.90;;;4.27;100.00;102467.47;2566611;30;138521;-41
2021/10/09 03:32:43;;;;;;;13.98;8.55;;;6.10;99.90;;;4.25;100.00;102472.16;2567060;30;138443;-40
2021/10/09 03:35:11;;;;;;;12.02;7.63;;;6.00;99.90;;;4.20;100.00;102466.25;2567614;30;137413;-40
2021/10/09 03:37:41;;;;;;;12.45;6.88;;;6.00;99.90;;;4.17;100.00;102465.53;2567667;30;138150;-40
2021/10/09 03:40:14;;;;;;;11.93;7.05;;;6.00;99.90;;;4.13;100.00;102461.38;2565516;30;137644;-40
2021/10/09 03:42:46;;;;;;;10.45;6.30;;;6.00;99.90;;;4.09;100.00;102464.44;2567372;30;138077;-40
2021/10/09 03:45:34;;;;;;;8.93;5.95;;;5.90;99.90;;;4.10;100.00;102466.16;2567521;30;139152;-40
2021/10/09 03:48:13;;;;;;;9.85;6.18;;;5.90;99.90;;;4.09;100.00;102468.03;2568599;30;139540;-40
2021/10/09 03:53:08;;;;;;;10.88;6.25;;;5.90;99.90;;;4.11;100.00;102470.56;2567456;30;138997;-40
2021/10/09 03:55:37;;;;;;;10.35;6.18;;;5.90;99.90;;;4.10;100.00;102468.88;2567035;30;136625;-40
2021/10/09 03:58:05;;;;;;;11.88;6.97;;;5.90;99.90;;;4.07;100.00;102470.00;2568167;30;138084;-40
2021/10/09 04:00:33;;;;;;;;;;;5.80;99.90;;;4.09;100.00;102472.56;2568024;30;137755;-40
2021/10/09 04:03:03;;;;;;;11.35;6.82;;;5.80;99.90;;;4.08;100.00;102478.94;2567974;30;139483;-40
2021/10/09 04:05:31;;;;;;;12.68;7.15;;;5.90;99.90;;;4.03;100.00;102480.19;2567828;30;139220;-41
2021/10/09 04:08:00;;;;;;;13.23;7.50;;;5.80;99.90;;;3.99;100.00;102478.75;2568001;30;139418;-40
2021/10/09 04:10:28;;;;;;;13.60;8.02;;;5.80;99.90;;;3.95;100.00;102479.97;2567911;30;137398;-40
2021/10/09 04:12:56;;;;;;;14.63;8.45;;;5.70;99.90;;;3.91;100.00;102480.34;2567321;30;138140;-41
2021/10/09 04:15:26;;;;;;;15.73;9.40;;;5.70;99.90;;;3.89;100.00;102470.53;2567868;30;140121;-40
2021/10/09 04:17:55;;;;;;;15.38;8.93;;;5.70;99.90;;;3.89;100.00;102475.09;2566179;30;138213;-40
2021/10/09 04:20:24;;;;;;;15.60;9.30;;;5.70;99.90;;;3.82;100.00;102469.34;2567189;30;139188;-41
2021/10/09 04:22:52;;;;;;;17.73;9.80;;;5.70;99.90;;;3.85;100.00;102474.50;2566418;30;138974;-40
2021/10/09 04:25:20;;;;;;;16.55;9.23;;;5.70;99.90;;;3.85;100.00;102474.50;2566909;30;139471;-40
2021/10/09 04:27:49;;;;;;;17.25;9.10;;;5.60;99.90;;;3.85;100.00;102473.66;2566213;30;139251;-40
2021/10/09 04:30:16;;;;;;;14.73;8.75;;;5.60;99.90;;;3.84;100.00;102478.19;2565610;30;138984;-40
2021/10/09 04:32:44;;;;;;;13.63;8.73;;;5.70;99.90;;;3.87;100.00;102482.47;2566884;30;138314;-40
2021/10/09 04:35:11;;;;;;;16.35;9.23;;;5.70;99.90;;;3.82;100.00;102469.34;2566678;30;137774;-40
2021/10/09 04:37:40;;;;;;;13.63;8.30;;;5.70;99.90;;;3.79;100.00;102458.81;2566937;30;140335;-40
2021/10/09 04:40:08;;;;;;;15.02;8.65;;;5.70;99.90;;;3.84;100.00;102477.31;2567009;30;138909;-40
2021/10/09 04:42:39;;;;;;;14.20;8.35;;;5.60;99.90;;;3.80;100.00;102470.44;2567393;30;139908;-40
2021/10/09 04:45:08;;;;;;;14.30;8.30;;;5.60;99.90;;;3.78;100.00;102472.41;2567277;30;137392;-40
2021/10/09 04:47:41;;;;;;;16.30;9.07;;;5.60;99.90;;;3.78;100.00;102473.28;2567359;30;139289;-40
2021/10/09 04:50:11;;;;;;;18.17;10.18;;;5.60;99.90;;;3.78;100.00;102467.88;2568421;30;139887;-40
2021/10/09 04:52:40;;;;;;;14.48;8.43;;;5.60;99.90;;;3.79;100.00;102475.00;2567007;30;139380;-40
2021/10/09 04:55:09;;;;;;;14.63;9.45;;;5.60;99.90;;;3.80;100.00;102470.44;2565969;30;138519;-40
2021/10/09 04:57:37;;;;;;;15.48;9.48;;;5.60;99.90;;;3.79;100.00;102469.59;2567586;30;139811;-40
2021/10/09 05:00:07;;;;;;;12.95;8.38;;;5.60;99.90;;;3.74;100.00;102474.53;2568430;30;138200;-40
2021/10/09 05:02:37;;;;;;;14.52;8.52;;;5.60;99.90;;;3.72;100.00;102474.66;2566715;30;139741;-40
2021/10/09 05:05:06;;;;;;;15.00;8.80;;;5.50;99.90;;;3.69;100.00;102477.59;2567523;30;137548;-40
2021/10/09 05:07:36;;;;;;;14.38;8.70;;;5.50;99.90;;;3.62;100.00;102468.31;2566994;30;140692;-40
2021/10/09 05:10:08;;;;;;;17.52;9.05;;;5.50;99.90;;;3.64;100.00;102468.16;2567348;30;138818;-40
2021/10/09 05:12:47;;;;;;;17.92;9.52;;;5.50;99.90;;;3.59;100.00;102463.16;2567392;30;138140;-40
2021/10/09 05:15:14;;;;;;;15.88;9.05;;;5.40;99.90;;;3.56;100.00;102463.38;2567253;30;139751;-40
2021/10/09 05:17:42;;;;;;;14.65;8.57;;;5.40;99.90;;;3.53;100.00;102466.34;2566342;30;139373;-40
2021/10/09 05:20:10;;;;;;;15.63;9.45;;;5.40;99.90;;;3.53;100.00;102469.91;2566507;30;137480;-40
2021/10/09 05:22:38;;;;;;;14.82;9.20;;;5.40;99.90;;;3.50;100.00;102472.00;2567322;30;140603;-40
2021/10/09 05:25:08;;;;;;;17.30;9.23;;;5.30;99.90;;;3.46;100.00;102474.09;2566647;30;136849;-40
2021/10/09 05:27:36;;;;;;;15.32;8.30;;;5.30;99.90;;;3.42;100.00;102475.31;2568244;30;139870;-40
2021/10/09 05:30:08;;;;;;;15.25;8.93;;;5.30;99.90;;;3.40;100.00;102478.16;2567169;30;138787;-40
2021/10/09 05:32:59;;;;;;;15.43;8.68;;;5.20;99.90;;;3.37;100.00;102475.69;2566520;30;140860;-40
2021/10/09 05:35:27;;;;;;;15.35;9.13;;;5.20;99.90;;;3.35;100.00;102484.88;2568296;30;137727;-40
2021/10/09 05:37:54;;;;;;;16.42;9.27;;;5.20;99.90;;;3.33;100.00;102479.63;2565043;30;139852;-40
2021/10/09 05:40:22;;;;;;;18.25;9.82;;;5.20;99.90;;;3.34;100.00;102480.47;2567377;30;138122;-40
2021/10/09 05:42:49;;;;;;;19.92;10.63;;;5.20;99.90;;;3.33;100.00;102482.34;2567062;30;139070;-40
2021/10/09 05:45:19;;;;;;;18.15;10.27;;;5.20;99.90;;;3.34;100.00;102480.47;2567477;30;138634;-40
2021/10/09 05:47:49;;;;;;;16.45;9.80;;;5.20;99.90;;;3.33;100.00;102476.94;2566772;30;140205;-40
2021/10/09 05:50:19;;;;;;;17.25;10.20;;;5.20;99.90;;;3.33;100.00;102473.38;2567578;30;137953;-40
2021/10/09 05:53:00;;;;;;;14.82;8.77;;;5.10;99.90;;;3.31;100.00;102482.44;2568480;30;138293;-40
2021/10/09 05:55:37;;;;;;;14.73;8.57;;;5.10;99.90;;;3.29;100.00;102486.22;2567342;30;138675;-40
2021/10/09 05:58:17;;;;;;;15.20;9.15;;;5.10;99.90;;;3.29;100.00;102488.94;2567307;30;139523;-40
2021/10/09 06:25:52;;;;;;;14.20;8.18;;;5.30;99.90;;;3.57;100.00;102524.47;2566862;30;139452;-40
2021/10/09 07:01:07;;;;;;;20.23;11.50;;;6.20;99.90;;;4.70;100.00;102528.66;2567136;30;139135;-40
2021/10/09 07:03:36;;;;;;;21.23;11.35;;;6.30;99.90;;;4.82;100.00;102528.59;2567522;30;139186;-40
2021/10/09 07:06:05;;;;;;;22.30;12.10;;;6.40;99.90;;;4.95;100.00;102529.22;2567736;30;137493;-40
2021/10/09 07:08:48;;;;;;;23.63;14.05;;;6.50;99.90;;;5.17;100.00;102532.78;2567434;30;139276;-40
2021/10/09 07:11:41;;;;;;;29.63;15.20;;;6.70;99.90;;;5.37;100.00;102541.00;2567445;30;139362;-40
2021/10/09 07:14:09;;;;;;;27.65;15.70;;;6.80;99.90;;;5.57;100.00;102548.19;2568035;30;139209;-40
2021/10/09 07:16:39;;;;;;;30.23;16.88;;;7.00;99.90;;;5.81;100.00;102538.00;2567579;30;139483;-40
2021/10/09 07:19:08;;;;;;;31.27;17.52;;;7.20;99.90;;;5.95;100.00;102545.72;2567480;30;139347;-40
2021/10/09 07:21:39;;;;;;;35.78;18.90;;;7.40;99.90;;;6.06;100.00;102533.94;2568103;30;139541;-40
2021/10/09 07:24:27;;;;;;;27.15;16.17;;;7.50;99.90;;;6.27;100.00;102554.63;2567384;30;139925;-40
2021/10/09 07:26:56;;;;;;;31.67;16.83;;;7.70;99.90;;;6.42;100.00;102544.22;2568661;30;138841;-40
2021/10/09 07:29:24;;;;;;;38.15;18.92;;;7.80;99.90;;;6.58;100.00;102554.50;2569088;30;138570;-40
2021/10/09 07:31:52;;;;;;;36.08;18.95;;;8.00;99.90;;;6.74;100.00;102553.91;2565523;30;138235;-40
2021/10/09 07:34:19;;;;;;;36.90;19.73;;;8.10;99.90;;;6.88;100.00;102556.19;2567898;30;139147;-41
2021/10/09 07:36:47;;;;;;;37.88;20.35;;;8.20;99.90;;;7.03;100.00;102562.00;2566505;30;138340;-41
2021/10/09 07:39:15;;;;;;;34.28;19.20;;;8.40;99.90;;;7.18;100.00;102556.13;2568451;30;138217;-40
2021/10/09 07:41:43;;;;;;;37.80;20.77;;;8.60;99.90;;;7.38;100.00;102564.19;2567515;30;136909;-41
2021/10/09 07:44:11;;;;;;;41.78;21.23;;;8.70;99.90;;;7.51;100.00;102569.28;2565618;30;137557;-40
2021/10/09 07:46:38;;;;;;;42.88;21.80;;;8.80;99.90;;;7.63;100.00;102566.22;2568673;30;136939;-40
2021/10/09 07:49:06;;;;;;;44.20;21.73;;;8.90;99.90;;;7.74;100.00;102564.34;2568613;30;139342;-40
2021/10/09 07:51:33;;;;;;;40.10;20.23;;;9.10;99.90;;;7.85;100.00;102563.28;2566556;30;137727;-40
2021/10/09 07:54:03;;;;;;;43.78;20.05;;;9.20;99.90;;;7.96;100.00;102557.63;2568050;30;139154;-40
2021/10/09 07:56:31;;;;;;;34.70;20.13;;;9.30;99.90;;;8.09;100.00;102562.69;2578489;30;137748;-39
2021/10/09 07:58:59;;;;;;;39.10;21.50;;;9.40;99.90;;;8.20;100.00;102557.00;2569681;30;138098;-39
2021/10/09 08:01:27;;;;;;;36.67;20.63;;;9.50;99.90;;;8.30;100.00;102559.66;2568348;30;138594;-39
2021/10/09 08:03:55;;;;;;;34.13;18.33;;;9.60;99.90;;;8.42;100.00;102568.44;2568989;30;138112;-39
2021/10/09 08:06:23;;;;;;;32.20;18.73;;;9.70;99.90;;;8.52;100.00;102562.13;2565586;30;137967;-39
2021/10/09 08:08:51;;;;;;;30.35;18.17;;;9.80;99.90;;;8.65;100.00;102567.16;2570100;30;138425;-39
2021/10/09 08:11:19;;;;;;;;;;;9.90;99.90;;;8.73;100.00;102567.22;2566794;30;137267;-39
2021/10/09 08:13:47;;;;;;;31.30;17.77;;;10.00;99.90;;;8.86;99.74;102569.53;2568977;30;137328;-39
2021/10/09 08:16:14;;;;;;;32.88;19.05;;;10.10;99.90;;;8.93;99.45;102557.00;2569958;30;136749;-39
2021/10/09 08:18:42;;;;;;;32.97;19.15;;;10.20;99.90;;;9.09;98.96;102569.88;2568834;30;137245;-39
2021/10/09 08:21:10;;;;;;;34.83;18.50;;;10.30;99.90;;;9.17;96.76;102567.22;2569827;30;137899;-39
2021/10/09 08:23:45;;;;;;;30.25;17.48;;;10.40;99.90;;;9.30;96.45;102574.97;2571380;30;137345;-39
2021/10/09 08:40:13;;;;;;;31.40;17.35;;;11.20;99.90;;;10.15;92.38;102572.38;2569202;30;137308;-39
2021/10/09 08:42:42;;;;;;;29.80;16.42;;;11.30;99.90;;;10.25;90.32;102581.28;2570420;30;136983;-39
2021/10/09 08:45:11;;;;;;;29.30;15.93;;;11.40;99.90;;;10.35;89.98;102576.53;2570150;30;138605;-39
2021/10/09 08:47:39;;;;;;;26.65;15.85;;;11.60;99.90;;;10.49;89.67;102576.94;2570743;30;138193;-39
2021/10/09 08:50:12;;;;;;;25.40;15.30;;;11.70;99.90;;;10.59;88.01;102574.00;2568790;30;138697;-40
2021/10/09 08:53:08;;;;;;;25.77;14.65;;;11.70;99.90;;;10.70;84.97;102581.00;2569536;30;137809;-39
2021/10/09 08:55:45;;;;;;;23.15;14.00;;;11.90;99.90;;;10.83;84.86;102580.50;2571905;30;138419;-39
2021/10/09 08:58:39;;;;;;;27.25;14.32;;;12.00;99.90;;;10.92;82.66;102579.50;2569474;30;136875;-39
2021/10/09 09:01:25;;;;;;;25.38;15.50;;;12.10;99.90;;;11.04;84.00;102575.38;2566496;30;138872;-39
2021/10/09 09:04:13;;;;;;;23.58;14.15;;;12.20;99.90;;;11.18;85.00;102575.69;2569388;30;137681;-39
2021/10/09 09:40:08;;;;;;;25.80;14.55;;;13.30;99.90;;;12.25;73.64;102573.56;2568264;30;138361;-39
2021/10/09 09:42:44;;;;;;;22.63;12.77;;;13.40;99.90;;;12.41;75.33;102567.13;2569678;30;137579;-40
2021/10/09 09:45:21;;;;;;;21.20;13.18;;;13.50;99.90;;;12.55;75.72;102562.75;2569420;30;139647;-39
2021/10/09 09:47:55;;;;;;;21.17;12.68;;;13.60;99.90;;;12.71;75.32;102557.13;2568648;30;138932;-39
2021/10/09 09:50:23;;;;;;;22.35;13.25;;;13.70;99.90;;;12.84;77.22;102561.97;2568621;30;139133;-39
2021/10/09 09:52:51;;;;;;;23.95;13.32;;;13.90;99.90;;;12.82;76.30;102560.47;2570377;30;137746;-39
2021/10/09 09:55:20;;;;;;;22.50;13.93;;;13.90;99.90;;;12.86;71.92;102564.53;2567928;30;137743;-39
2021/10/09 09:58:09;;;;;;;23.77;12.95;;;14.00;99.90;;;12.93;73.63;102563.63;2568950;30;136850;-39
2021/10/09 10:00:37;;;;;;;20.75;13.10;;;14.00;99.90;;;13.01;73.21;102564.56;2566400;30;138411;-40
2021/10/09 10:03:06;;;;;;;23.92;12.82;;;14.10;99.90;;;13.06;74.08;102560.25;2569677;30;138939;-39
2021/10/09 10:05:34;;;;;;;21.38;12.68;;;14.20;99.90;;;13.16;73.62;102557.22;2570926;30;139213;-39
2021/10/09 10:08:01;;;;;;;18.50;11.90;;;14.30;99.90;;;13.20;72.16;102558.56;2569922;30;136690;-39
2021/10/09 10:10:29;;;;;;;23.95;13.23;;;14.30;99.90;;;13.30;74.31;102561.03;2570520;30;138198;-39
2021/10/09 10:12:59;;;;;;;20.13;12.23;;;14.40;99.90;;;13.44;73.46;102550.25;2567980;30;138211;-39
2021/10/09 10:15:30;;;;;;;18.85;12.65;;;14.50;99.90;;;13.56;72.05;102559.72;2569330;30;138310;-39
2021/10/09 10:17:58;;;;;;;21.85;12.10;;;14.50;99.90;;;13.65;70.63;102558.56;2570548;30;137472;-40
2021/10/09 10:20:51;;;;;;;24.70;13.00;;;14.70;99.90;;;13.73;70.15;102556.75;2568587;30;138271;-39
2021/10/09 10:23:41;;;;;;;22.90;12.57;;;14.80;99.90;;;13.67;69.24;102561.13;2570319;30;137018;-39
2021/10/09 10:26:20;;;;;;;24.20;12.65;;;14.80;99.90;;;13.73;72.32;102554.88;2569270;30;137290;-39
2021/10/09 10:29:14;;;;;;;21.27;12.88;;;14.90;99.90;;;13.85;70.82;102554.38;2569005;30;137424;-39
2021/10/09 10:32:10;;;;;;;21.98;11.80;;;14.90;99.90;;;13.98;71.51;102561.91;2569794;30;137905;-39
2021/10/09 10:34:37;;;;;;;20.63;12.07;;;15.00;99.90;;;14.06;68.05;102556.31;2570274;30;136802;-39
2021/10/09 10:37:05;;;;;;;17.25;11.38;;;15.10;99.90;;;14.17;68.49;102558.56;2568904;30;137541;-40
2021/10/09 10:39:40;;;;;;;21.08;12.18;;;15.20;99.90;;;14.21;66.34;102554.38;2570136;30;137514;-40
2021/10/09 10:42:29;;;;;;;22.63;12.77;;;15.30;99.90;;;14.28;67.64;102554.44;2568330;30;138441;-39
2021/10/09 10:45:09;;;;;;;20.25;12.70;;;15.30;99.90;;;14.21;64.45;102554.38;2569638;30;137697;-39
2021/10/09 10:53:15;;;;;;;20.45;11.90;;;;;;;14.52;66.48;102542.22;2570147;30;138275;-39
2021/10/09 10:56:08;;;;;;;21.45;12.35;;;15.50;99.90;;;14.50;64.98;102546.22;2570304;30;137235;-39
2021/10/09 10:58:38;;;;;;;20.35;11.35;;;15.70;99.90;;;14.56;66.69;102545.41;2568182;30;138877;-39
2021/10/09 11:01:23;;;;;;;19.08;11.57;;;15.70;99.90;;;14.65;66.30;102548.88;2570355;30;137036;-39
2021/10/09 11:03:54;;;;;;;21.38;11.85;;;15.70;99.90;;;14.72;66.02;102547.06;2569555;30;138382;-39
2021/10/09 11:06:25;;;;;;;20.50;12.15;;;15.80;99.90;;;14.70;65.91;102553.75;2568543;30;137667;-39
2021/10/09 11:08:58;;;;;;;22.23;12.73;;;15.80;99.90;;;14.73;67.82;102542.44;2568614;30;138819;-38
2021/10/09 11:11:45;;;;;;;18.45;11.25;;;15.90;99.90;;;14.82;65.79;102547.56;2569130;30;137137;-39
2021/10/09 11:14:25;;;;;;;24.00;12.27;;;16.00;99.90;;;14.97;65.92;102543.88;2567219;30;137247;-39
2021/10/09 11:17:04;;;;;;;17.83;10.25;;;16.00;99.90;;;15.12;66.21;102546.50;2570351;30;136624;-39
2021/10/09 11:19:51;;;;;;;21.10;11.55;;;16.10;99.90;;;15.09;64.58;102544.19;2570263;30;137414;-40
2021/10/09 11:22:20;;;;;;;20.83;11.65;;;16.20;99.90;;;15.06;62.83;102542.66;2569487;30;136977;-39
2021/10/09 11:24:52;;;;;;;20.55;11.30;;;16.20;99.90;;;15.16;62.40;102535.97;2571385;30;136903;-39
2021/10/09 11:27:21;;;;;;;18.70;11.02;;;16.20;99.90;;;15.23;64.28;102545.09;2568661;30;137941;-38
2021/10/09 11:30:08;;;;;;;18.60;10.40;;;16.30;99.90;;;15.39;64.30;102533.78;2569196;30;137573;-38
2021/10/09 11:32:41;;;;;;;18.10;10.85;;;16.40;99.90;;;15.41;63.41;102525.31;2569895;30;136804;-39
2021/10/09 11:35:12;;;;;;;15.38;9.75;;;16.50;99.90;;;15.50;62.45;102529.59;2566937;30;139161;-39
2021/10/09 11:37:52;;;;;;;18.33;10.52;;;16.60;99.90;;;15.50;63.81;102531.50;2569236;30;136893;-39
2021/10/09 11:40:29;;;;;;;20.83;11.30;;;16.60;99.90;;;15.50;62.52;102523.25;2567092;30;137209;-39
2021/10/09 11:43:00;;;;;;;15.88;9.85;;;16.60;99.90;;;15.61;62.51;102530.91;2569406;30;138436;-39
2021/10/09 11:45:39;;;;;;;20.95;10.27;;;16.60;99.90;;;15.65;64.81;102534.97;2567042;30;138725;-39
2021/10/09 11:54:47;;;;;;;16.65;10.00;;;16.80;99.90;;;15.77;58.87;102524.19;2569470;30;137145;-39
2021/10/09 11:56:45;;;;;;;17.00;9.65;;;16.80;99.90;;;15.84;61.90;102523.41;2570216;30;137278;-39
2021/10/09 11:59:14;;;;;;;15.07;9.27;;;16.90;99.90;;;15.99;61.56;102515.84;2568408;30;137698;-44
2021/10/09 12:01:46;;;;;;;17.45;9.90;;;17.00;99.90;;;15.95;64.54;102509.91;2569478;30;138261;-39
2021/10/09 12:04:23;;;;;;;17.33;9.57;;;17.00;99.90;;;16.10;64.79;102512.50;2569454;30;137468;-39
2021/10/09 12:06:56;;;;;;;16.63;9.00;;;17.10;99.90;;;16.24;62.32;102512.50;2569869;30;137575;-40
2021/10/09 12:09:42;;;;;;;15.48;9.70;;;17.30;99.90;;;16.29;62.64;102512.72;2569044;30;137339;-39
2021/10/09 12:12:24;;;;;;;16.73;9.07;;;17.40;99.90;;;16.36;63.11;102504.47;2569912;30;137298;-39
2021/10/09 12:14:53;;;;;;;17.02;9.68;;;17.40;99.90;;;16.38;62.15;102510.59;2568840;30;137320;-39
2021/10/09 12:17:32;;;;;;;16.45;9.13;;;17.40;99.90;;;16.42;62.16;102500.84;2571600;30;137338;-39
2021/10/09 12:20:06;;;;;;;19.30;9.90;;;17.50;99.90;;;16.51;61.60;102496.00;2569321;30;137665;-39
2021/10/09 12:22:47;;;;;;;16.38;9.93;;;17.60;99.90;;;16.46;61.22;102496.66;2567866;30;138426;-39
2021/10/09 12:25:33;;;;;;;17.90;9.48;;;17.60;99.90;;;16.52;60.97;102492.19;2569340;30;137167;-39
2021/10/09 12:28:03;;;;;;;13.88;8.00;;;17.60;99.90;;;16.63;62.18;102493.44;2569220;30;138394;-39
2021/10/09 12:30:48;;;;;;;15.40;9.07;;;17.70;99.90;;;16.66;63.94;102476.47;2566100;30;137909;-39